createdAt,value
2022-09-17T00:00:18.401Z,52.01
2022-09-17T00:01:23.631Z,51.97
2022-09-17T00:02:26.734Z,51.91
2022-09-17T00:03:29.342Z,52.02
2022-09-17T00:04:31.833Z,52.04
2022-09-17T00:05:37.475Z,51.79
2022-09-17T00:06:42.912Z,51.89
2022-09-17T00:07:45.736Z,51.80
2022-09-17T00:08:48.136Z,52.04
2022-09-17T00:09:50.281Z,51.86
2022-09-17T00:10:52.530Z,52.04
2022-09-17T00:11:54.657Z,51.96
2022-09-17T00:12:56.791Z,52.13
2022-09-17T00:14:01.285Z,51.92
2022-09-17T00:15:03.644Z,52.07
2022-09-17T00:16:08.511Z,51.89
2022-09-17T00:17:15.996Z,51.95
2022-09-17T00:18:18.375Z,51.93
2022-09-17T00:19:25.619Z,52.06
2022-09-17T00:20:27.942Z,51.92
2022-09-17T00:21:30.743Z,51.93
2022-09-17T00:22:32.875Z,52.07
2022-09-17T00:23:35.080Z,52.20
2022-09-17T00:24:37.234Z,51.84
2022-09-17T00:25:41.637Z,51.87
2022-09-17T00:26:44.857Z,52.07
2022-09-17T00:27:50.017Z,51.93
2022-09-17T00:28:53.799Z,52.04
2022-09-17T00:29:58.308Z,52.00
2022-09-17T00:31:00.538Z,51.97
2022-09-17T00:32:02.683Z,51.92
2022-09-17T00:33:04.843Z,51.95
2022-09-17T00:34:07.572Z,51.99
2022-09-17T00:35:09.777Z,51.99
2022-09-17T00:36:12.049Z,52.06
2022-09-17T00:37:14.177Z,52.18
2022-09-17T00:38:16.313Z,52.31
2022-09-17T00:39:18.681Z,52.03
2022-09-17T00:40:22.193Z,51.93
2022-09-17T00:41:27.958Z,51.95
2022-09-17T00:42:30.190Z,51.88
2022-09-17T00:43:39.211Z,51.93
2022-09-17T00:44:52.816Z,51.97
2022-09-17T00:45:55.335Z,52.05
2022-09-17T00:46:58.921Z,52.26
2022-09-17T00:48:04.276Z,52.15
2022-09-17T00:49:21.764Z,52.13
2022-09-17T00:50:29.914Z,52.07
2022-09-17T00:51:37.693Z,52.29
2022-09-17T00:52:49.978Z,52.15
2022-09-17T00:53:52.208Z,52.37
2022-09-17T00:55:01.453Z,52.13
2022-09-17T00:56:10.033Z,51.95
2022-09-17T00:57:12.358Z,52.13
2022-09-17T00:58:16.968Z,51.85
2022-09-17T00:59:20.196Z,51.93
2022-09-17T01:00:25.386Z,52.22
2022-09-17T01:01:31.554Z,51.95
2022-09-17T01:02:37.764Z,51.97
2022-09-17T01:03:39.906Z,51.93
2022-09-17T01:04:43.062Z,52.11
2022-09-17T01:05:50.081Z,51.87
2022-09-17T01:07:08.086Z,51.98
2022-09-17T01:08:13.270Z,51.90
2022-09-17T01:09:56.257Z,52.11
2022-09-17T01:11:21.591Z,51.92
2022-09-17T01:12:42.136Z,52.01
2022-09-17T01:14:18.682Z,51.93
2022-09-17T01:15:34.624Z,51.87
2022-09-17T01:17:23.148Z,51.94
2022-09-17T01:18:39.241Z,52.20
2022-09-17T01:20:06.414Z,52.22
2022-09-17T01:21:30.113Z,52.04
2022-09-17T01:23:01.405Z,52.10
2022-09-17T01:24:41.304Z,52.03
2022-09-17T01:26:00.583Z,52.08
2022-09-17T01:27:44.982Z,52.11
2022-09-17T01:29:15.078Z,52.16
2022-09-17T01:30:26.488Z,52.18
2022-09-17T01:31:39.060Z,52.04
2022-09-17T01:32:59.544Z,52.20
2022-09-17T01:34:07.516Z,52.33
2022-09-17T01:35:19.365Z,52.12
2022-09-17T01:36:45.248Z,52.10
2022-09-17T01:38:14.067Z,52.23
2022-09-17T01:39:33.013Z,52.21
2022-09-17T01:40:51.043Z,52.08
2022-09-17T01:42:00.761Z,52.07
2022-09-17T01:43:21.610Z,52.26
2022-09-17T01:44:32.647Z,52.07
2022-09-17T01:45:48.259Z,52.12
2022-09-17T01:46:58.067Z,52.20
2022-09-17T01:48:11.676Z,52.08
2022-09-17T01:49:16.100Z,52.33
2022-09-17T01:50:26.376Z,52.29
2022-09-17T01:51:35.337Z,52.19
2022-09-17T01:52:40.614Z,52.13
2022-09-17T01:54:04.904Z,52.23
2022-09-17T01:55:12.231Z,52.30
2022-09-17T01:56:21.522Z,52.05
2022-09-17T01:57:30.281Z,52.25
2022-09-17T01:58:40.551Z,52.37
2022-09-17T02:00:03.873Z,52.21
2022-09-17T02:01:17.585Z,52.15
2022-09-17T02:02:56.382Z,52.23
2022-09-17T02:04:09.702Z,52.28
2022-09-17T02:05:19.430Z,52.37
2022-09-17T02:06:40.508Z,52.55
2022-09-17T02:07:49.867Z,52.35
2022-09-17T02:08:56.913Z,52.31
2022-09-17T02:10:07.965Z,52.28
2022-09-17T02:11:14.470Z,52.49
2022-09-17T02:12:26.564Z,52.48
2022-09-17T02:13:36.632Z,52.40
2022-09-17T02:14:47.109Z,52.57
2022-09-17T02:15:57.362Z,52.59
2022-09-17T02:17:27.310Z,52.67
2022-09-17T02:18:41.341Z,52.53
2022-09-17T02:19:45.869Z,52.45
2022-09-17T02:21:00.503Z,52.62
2022-09-17T02:22:21.307Z,52.47
2022-09-17T02:23:29.892Z,52.67
2022-09-17T02:24:48.658Z,52.62
2022-09-17T02:25:57.464Z,52.67
2022-09-17T02:27:11.031Z,52.68
2022-09-17T02:28:20.971Z,52.79
2022-09-17T02:29:31.763Z,52.94
2022-09-17T02:30:34.630Z,52.89
2022-09-17T02:31:36.902Z,52.86
2022-09-17T02:32:41.503Z,52.97
2022-09-17T02:33:48.350Z,53.05
2022-09-17T02:34:50.729Z,52.83
2022-09-17T02:35:53.098Z,52.89
2022-09-17T02:36:56.945Z,52.94
2022-09-17T02:38:00.659Z,52.92
2022-09-17T02:39:04.475Z,52.97
2022-09-17T02:40:11.767Z,53.06
2022-09-17T02:41:23.308Z,52.97
2022-09-17T02:42:45.529Z,53.06
2022-09-17T02:44:03.583Z,53.12
2022-09-17T02:45:16.438Z,53.18
2022-09-17T02:46:52.174Z,53.11
2022-09-17T02:48:33.877Z,53.20
2022-09-17T02:49:55.226Z,53.12
2022-09-17T02:51:19.137Z,53.22
2022-09-17T02:52:27.534Z,53.16
2022-09-17T02:53:33.760Z,53.24
2022-09-17T02:54:54.444Z,53.24
2022-09-17T02:56:15.529Z,53.30
2022-09-17T02:57:27.720Z,53.17
2022-09-17T02:58:55.094Z,53.30
2022-09-17T03:00:09.568Z,53.39
2022-09-17T03:01:24.107Z,53.23
2022-09-17T03:02:43.543Z,53.23
2022-09-17T03:03:50.351Z,53.39
2022-09-17T03:04:52.908Z,53.53
2022-09-17T03:05:56.379Z,53.29
2022-09-17T03:07:02.005Z,53.31
2022-09-17T03:08:04.991Z,53.48
2022-09-17T03:09:07.120Z,53.36
2022-09-17T03:10:09.456Z,53.41
2022-09-17T03:11:13.017Z,53.51
2022-09-17T03:12:15.746Z,53.57
2022-09-17T03:13:31.685Z,53.75
2022-09-17T03:14:37.435Z,53.79
2022-09-17T03:15:42.879Z,53.59
2022-09-17T03:16:45.063Z,53.57
2022-09-17T03:17:51.237Z,53.81
2022-09-17T03:18:56.282Z,53.80
2022-09-17T03:19:58.456Z,53.56
2022-09-17T03:21:00.638Z,53.73
2022-09-17T03:22:03.211Z,53.88
2022-09-17T03:23:05.350Z,53.80
2022-09-17T03:24:08.358Z,53.86
2022-09-17T03:25:11.646Z,53.63
2022-09-17T03:26:21.123Z,53.83
2022-09-17T03:27:23.528Z,53.99
2022-09-17T03:28:26.647Z,53.86
2022-09-17T03:29:29.690Z,53.89
2022-09-17T03:30:34.373Z,53.63
2022-09-17T03:31:36.597Z,53.71
2022-09-17T03:32:38.903Z,53.92
2022-09-17T03:33:43.594Z,53.88
2022-09-17T03:34:47.065Z,53.83
2022-09-17T03:35:49.441Z,54.00
2022-09-17T03:36:54.670Z,53.74
2022-09-17T03:37:57.422Z,53.93
2022-09-17T03:38:59.768Z,53.80
2022-09-17T03:40:02.509Z,54.11
2022-09-17T03:41:07.707Z,54.08
2022-09-17T03:42:09.838Z,54.08
2022-09-17T03:43:11.965Z,54.03
2022-09-17T03:44:15.572Z,54.10
2022-09-17T03:45:17.915Z,54.17
2022-09-17T03:46:20.578Z,54.08
2022-09-17T03:47:22.971Z,54.02
2022-09-17T03:48:29.717Z,54.29
2022-09-17T03:49:32.006Z,54.07
2022-09-17T03:50:34.144Z,54.06
2022-09-17T03:51:36.327Z,54.10
2022-09-17T03:52:43.366Z,54.20
2022-09-17T03:53:45.569Z,54.28
2022-09-17T03:54:48.324Z,54.40
2022-09-17T03:55:50.738Z,54.14
2022-09-17T03:56:52.861Z,54.37
2022-09-17T03:57:56.238Z,54.45
2022-09-17T03:59:02.220Z,54.42
2022-09-17T04:00:05.421Z,54.26
2022-09-17T04:01:14.152Z,54.48
2022-09-17T04:02:16.443Z,54.40
2022-09-17T04:03:19.382Z,54.37
2022-09-17T04:04:21.857Z,54.53
2022-09-17T04:05:24.222Z,54.48
2022-09-17T04:06:26.376Z,54.58
2022-09-17T04:07:35.819Z,54.63
2022-09-17T04:08:37.943Z,54.54
2022-09-17T04:09:40.065Z,54.58
2022-09-17T04:10:45.321Z,54.61
2022-09-17T04:11:47.451Z,54.53
2022-09-17T04:12:49.656Z,54.81
2022-09-17T04:13:51.791Z,54.59
2022-09-17T04:14:53.963Z,54.62
2022-09-17T04:15:56.128Z,54.88
2022-09-17T04:16:58.977Z,54.98
2022-09-17T04:18:01.121Z,54.73
2022-09-17T04:19:04.893Z,54.78
2022-09-17T04:20:07.488Z,55.11
2022-09-17T04:21:10.743Z,55.19
2022-09-17T04:22:12.982Z,55.08
2022-09-17T04:23:15.706Z,55.17
2022-09-17T04:24:17.869Z,54.83
2022-09-17T04:25:20.054Z,54.93
2022-09-17T04:26:25.414Z,55.19
2022-09-17T04:27:27.562Z,55.08
2022-09-17T04:28:37.287Z,55.17
2022-09-17T04:29:41.680Z,55.25
2022-09-17T04:30:43.832Z,55.26
2022-09-17T04:31:46.088Z,55.05
2022-09-17T04:32:48.324Z,55.38
2022-09-17T04:33:53.888Z,55.14
2022-09-17T04:34:56.011Z,55.29
2022-09-17T04:35:58.220Z,55.45
2022-09-17T04:37:00.392Z,55.20
2022-09-17T04:38:02.709Z,55.24
2022-09-17T04:39:04.996Z,55.35
2022-09-17T04:40:08.403Z,55.45
2022-09-17T04:41:10.658Z,55.47
2022-09-17T04:42:12.775Z,55.76
2022-09-17T04:43:15.315Z,55.84
2022-09-17T04:44:17.617Z,55.49
2022-09-17T04:45:20.604Z,55.80
2022-09-17T04:46:25.840Z,55.93
2022-09-17T04:47:28.642Z,55.68
2022-09-17T04:48:30.814Z,55.84
2022-09-17T04:49:33.032Z,55.83
2022-09-17T04:50:38.246Z,55.83
2022-09-17T04:51:40.393Z,55.82
2022-09-17T04:52:43.546Z,55.96
2022-09-17T04:53:48.592Z,55.90
2022-09-17T04:54:50.703Z,55.93
2022-09-17T04:55:52.918Z,55.90
2022-09-17T04:56:55.063Z,55.98
2022-09-17T04:57:57.468Z,56.32
2022-09-17T04:58:59.707Z,56.00
2022-09-17T05:00:02.364Z,56.13
2022-09-17T05:01:06.893Z,56.46
2022-09-17T05:02:09.115Z,56.23
2022-09-17T05:03:11.339Z,56.26
2022-09-17T05:04:13.558Z,56.55
2022-09-17T05:05:17.095Z,56.75
2022-09-17T05:06:19.259Z,56.56
2022-09-17T05:07:21.421Z,56.61
2022-09-17T05:08:24.161Z,56.78
2022-09-17T05:09:26.886Z,56.59
2022-09-17T05:10:29.305Z,56.60
2022-09-17T05:11:31.448Z,56.82
2022-09-17T05:12:34.562Z,56.76
2022-09-17T05:13:36.936Z,56.83
2022-09-17T05:14:39.116Z,56.86
2022-09-17T05:15:41.303Z,57.11
2022-09-17T05:16:43.517Z,57.01
2022-09-17T05:17:46.161Z,57.23
2022-09-17T05:18:49.668Z,57.04
2022-09-17T05:19:53.419Z,57.09
2022-09-17T05:20:55.631Z,57.25
2022-09-17T05:21:57.808Z,57.23
2022-09-17T05:22:59.978Z,57.21
2022-09-17T05:24:04.624Z,57.59
2022-09-17T05:25:07.038Z,57.49
2022-09-17T05:26:09.643Z,57.49
2022-09-17T05:27:12.727Z,57.52
2022-09-17T05:28:14.852Z,57.69
2022-09-17T05:29:17.025Z,57.77
2022-09-17T05:30:19.617Z,57.78
2022-09-17T05:31:21.833Z,57.59
2022-09-17T05:32:24.055Z,57.87
2022-09-17T05:33:26.309Z,57.81
2022-09-17T05:34:28.628Z,57.82
2022-09-17T05:35:31.845Z,57.91
2022-09-17T05:36:34.017Z,57.95
2022-09-17T05:37:37.241Z,57.98
2022-09-17T05:38:39.458Z,58.06
2022-09-17T05:39:41.625Z,57.99
2022-09-17T05:40:43.814Z,58.08
2022-09-17T05:41:45.985Z,58.22
2022-09-17T05:42:51.132Z,58.08
2022-09-17T05:43:53.276Z,57.99
2022-09-17T05:44:55.415Z,58.26
2022-09-17T05:46:04.679Z,58.22
2022-09-17T05:47:06.997Z,58.14
2022-09-17T05:48:13.691Z,58.25
2022-09-17T05:49:15.861Z,58.05
2022-09-17T05:50:18.003Z,58.35
2022-09-17T05:51:20.225Z,58.36
2022-09-17T05:52:22.378Z,58.45
2022-09-17T05:53:24.642Z,58.42
2022-09-17T05:54:27.301Z,58.65
2022-09-17T05:55:29.715Z,58.80
2022-09-17T05:56:32.094Z,58.71
2022-09-17T05:57:34.426Z,58.69
2022-09-17T05:58:39.214Z,58.83
2022-09-17T05:59:41.351Z,58.73
2022-09-17T06:00:44.341Z,58.95
2022-09-17T06:01:46.560Z,58.78
2022-09-17T06:02:55.018Z,58.89
2022-09-17T06:03:57.394Z,58.89
2022-09-17T06:05:01.851Z,59.10
2022-09-17T06:06:04.767Z,59.11
2022-09-17T06:07:10.282Z,59.09
2022-09-17T06:08:12.566Z,59.09
2022-09-17T06:09:14.833Z,58.95
2022-09-17T06:10:17.447Z,59.11
2022-09-17T06:11:22.468Z,58.84
2022-09-17T06:12:24.587Z,58.99
2022-09-17T06:13:26.829Z,59.08
2022-09-17T06:14:28.962Z,59.09
2022-09-17T06:15:31.107Z,59.13
2022-09-17T06:16:33.310Z,59.14
2022-09-17T06:17:36.451Z,59.38
2022-09-17T06:18:38.613Z,59.41
2022-09-17T06:19:40.751Z,59.45
2022-09-17T06:20:42.868Z,59.39
2022-09-17T06:21:47.231Z,59.57
2022-09-17T06:22:49.382Z,59.25
2022-09-17T06:23:51.557Z,59.55
2022-09-17T06:24:53.714Z,59.48
2022-09-17T06:25:58.673Z,59.31
2022-09-17T06:27:00.830Z,59.38
2022-09-17T06:28:03.509Z,59.40
2022-09-17T06:29:05.725Z,59.61
2022-09-17T06:30:08.190Z,59.49
2022-09-17T06:31:11.802Z,59.43
2022-09-17T06:32:17.066Z,59.51
2022-09-17T06:33:19.536Z,59.43
2022-09-17T06:34:21.650Z,59.43
2022-09-17T06:35:23.810Z,59.47
2022-09-17T06:36:28.972Z,59.51
2022-09-17T06:37:33.136Z,59.55
2022-09-17T06:38:36.545Z,59.78
2022-09-17T06:39:38.696Z,59.55
2022-09-17T06:40:41.403Z,59.74
2022-09-17T06:41:43.742Z,59.78
2022-09-17T06:42:46.050Z,59.88
2022-09-17T06:43:48.207Z,59.88
2022-09-17T06:44:50.397Z,60.20
2022-09-17T06:46:10.293Z,60.06
2022-09-17T06:47:12.481Z,60.15
2022-09-17T06:48:14.801Z,60.45
2022-09-17T06:49:17.968Z,60.29
2022-09-17T06:50:20.317Z,60.37
2022-09-17T06:51:22.746Z,60.22
2022-09-17T06:52:25.013Z,60.52
2022-09-17T06:53:27.201Z,60.50
2022-09-17T06:54:29.353Z,60.46
2022-09-17T06:55:31.682Z,60.31
2022-09-17T06:56:34.666Z,60.56
2022-09-17T06:57:36.810Z,60.47
2022-09-17T06:58:39.728Z,60.62
2022-09-17T06:59:45.454Z,60.67
2022-09-17T07:00:47.934Z,60.50
2022-09-17T07:01:50.277Z,60.54
2022-09-17T07:02:59.910Z,60.79
2022-09-17T07:04:05.437Z,60.81
2022-09-17T07:05:07.918Z,60.91
2022-09-17T07:06:11.412Z,60.81
2022-09-17T07:07:13.604Z,61.03
2022-09-17T07:08:15.715Z,61.18
2022-09-17T07:09:25.317Z,61.52
2022-09-17T07:10:27.687Z,61.31
2022-09-17T07:11:31.671Z,61.47
2022-09-17T07:12:34.148Z,61.50
2022-09-17T07:13:36.361Z,61.55
2022-09-17T07:14:38.496Z,61.40
2022-09-17T07:15:43.839Z,61.37
2022-09-17T07:16:46.056Z,61.46
2022-09-17T07:17:48.233Z,61.52
2022-09-17T07:18:50.773Z,61.42
2022-09-17T07:19:56.036Z,61.57
2022-09-17T07:21:03.533Z,61.68
2022-09-17T07:22:05.688Z,61.72
2022-09-17T07:23:08.243Z,61.93
2022-09-17T07:24:10.372Z,61.73
2022-09-17T07:25:12.594Z,61.50
2022-09-17T07:26:16.682Z,61.63
2022-09-17T07:27:18.844Z,61.64
2022-09-17T07:28:22.780Z,61.77
2022-09-17T07:29:27.196Z,61.72
2022-09-17T07:30:37.542Z,61.80
2022-09-17T07:31:39.747Z,61.61
2022-09-17T07:32:42.325Z,61.90
2022-09-17T07:33:45.601Z,61.74
2022-09-17T07:34:50.654Z,61.89
2022-09-17T07:36:01.408Z,62.09
2022-09-17T07:37:03.566Z,61.81
2022-09-17T07:38:05.738Z,61.93
2022-09-17T07:39:07.890Z,62.12
2022-09-17T07:40:10.277Z,62.15
2022-09-17T07:41:17.605Z,62.18
2022-09-17T07:42:19.822Z,62.00
2022-09-17T07:43:21.941Z,62.23
2022-09-17T07:44:24.140Z,62.23
2022-09-17T07:45:26.290Z,62.37
2022-09-17T07:46:29.218Z,62.29
2022-09-17T07:47:31.370Z,62.58
2022-09-17T07:48:34.420Z,62.49
2022-09-17T07:49:39.801Z,62.63
2022-09-17T07:50:44.232Z,62.69
2022-09-17T07:51:46.922Z,62.32
2022-09-17T07:52:49.344Z,62.27
2022-09-17T07:53:56.360Z,62.34
2022-09-17T07:55:00.799Z,62.58
2022-09-17T07:56:11.834Z,62.46
2022-09-17T07:57:14.279Z,62.55
2022-09-17T07:58:16.401Z,62.57
2022-09-17T07:59:18.580Z,62.46
2022-09-17T08:00:20.806Z,62.31
2022-09-17T08:01:23.073Z,62.34
2022-09-17T08:02:25.485Z,62.49
2022-09-17T08:03:27.730Z,62.22
2022-09-17T08:04:32.319Z,62.35
2022-09-17T08:05:36.757Z,62.12
2022-09-17T08:06:40.231Z,62.20
2022-09-17T08:07:42.354Z,62.23
2022-09-17T08:08:44.562Z,62.11
2022-09-17T08:09:46.744Z,62.18
2022-09-17T08:10:48.887Z,62.20
2022-09-17T08:11:56.003Z,62.24
2022-09-17T08:12:59.273Z,62.06
2022-09-17T08:14:04.899Z,61.95
2022-09-17T08:15:07.893Z,61.74
2022-09-17T08:16:13.476Z,61.90
2022-09-17T08:17:15.866Z,61.83
2022-09-17T08:18:18.069Z,61.89
2022-09-17T08:19:20.438Z,61.44
2022-09-17T08:20:29.450Z,61.67
2022-09-17T08:21:31.815Z,61.40
2022-09-17T08:22:34.153Z,61.43
2022-09-17T08:23:37.651Z,61.38
2022-09-17T08:24:42.591Z,61.11
2022-09-17T08:25:44.731Z,60.91
2022-09-17T08:26:46.869Z,60.51
2022-09-17T08:27:48.989Z,60.46
2022-09-17T08:29:03.304Z,59.90
2022-09-17T08:30:07.373Z,59.85
2022-09-17T08:31:09.861Z,59.62
2022-09-17T08:32:12.435Z,59.52
2022-09-17T08:33:14.566Z,59.56
2022-09-17T08:34:16.697Z,59.40
2022-09-17T08:35:19.324Z,59.28
2022-09-17T08:36:22.984Z,59.19
2022-09-17T08:37:26.505Z,58.99
2022-09-17T08:38:37.891Z,59.17
2022-09-17T08:39:40.373Z,59.08
2022-09-17T08:40:55.292Z,59.14
2022-09-17T08:42:31.426Z,58.95
2022-09-17T08:44:11.242Z,58.87
2022-09-17T08:45:16.767Z,58.42
2022-09-17T08:46:19.303Z,58.19
2022-09-17T08:47:38.662Z,58.19
2022-09-17T08:49:06.954Z,57.60
2022-09-17T08:50:32.937Z,57.78
2022-09-17T08:52:06.109Z,57.57
2022-09-17T08:53:38.699Z,57.52
2022-09-17T08:55:13.022Z,57.25
2022-09-17T08:56:19.141Z,57.00
2022-09-17T08:57:35.910Z,57.15
2022-09-17T08:59:04.752Z,57.05
2022-09-17T09:00:16.511Z,57.11
2022-09-17T09:02:00.444Z,56.80
2022-09-17T09:03:37.300Z,56.69
2022-09-17T09:04:58.739Z,56.70
2022-09-17T09:06:01.897Z,56.67
2022-09-17T09:07:12.640Z,56.49
2022-09-17T09:08:27.097Z,56.37
2022-09-17T09:09:40.202Z,56.25
2022-09-17T09:10:56.021Z,56.19
2022-09-17T09:12:05.198Z,56.34
2022-09-17T09:13:08.031Z,56.64
2022-09-17T09:14:16.957Z,56.77
2022-09-17T09:15:30.448Z,56.95
2022-09-17T09:16:38.630Z,56.66
2022-09-17T09:17:51.395Z,56.75
2022-09-17T09:18:56.054Z,56.68
2022-09-17T09:19:59.666Z,56.53
2022-09-17T09:21:10.858Z,56.52
2022-09-17T09:22:45.512Z,56.10
2022-09-17T09:24:04.477Z,55.83
2022-09-17T09:25:28.753Z,55.58
2022-09-17T09:26:49.227Z,55.35
2022-09-17T09:28:22.957Z,55.36
2022-09-17T09:30:02.294Z,54.76
2022-09-17T09:31:38.123Z,54.94
2022-09-17T09:32:59.531Z,55.12
2022-09-17T09:34:03.992Z,54.60
2022-09-17T09:35:31.527Z,55.03
2022-09-17T09:36:34.240Z,54.40
2022-09-17T09:37:40.327Z,54.31
2022-09-17T09:38:56.746Z,53.93
2022-09-17T09:40:22.282Z,53.90
2022-09-17T09:41:31.820Z,53.52
2022-09-17T09:42:36.632Z,53.70
2022-09-17T09:44:05.593Z,53.07
2022-09-17T09:45:17.914Z,53.08
2022-09-17T09:46:28.696Z,53.31
2022-09-17T09:47:42.075Z,53.04
2022-09-17T09:49:11.865Z,53.58
2022-09-17T09:51:07.139Z,53.66
2022-09-17T09:52:32.825Z,53.45
2022-09-17T09:54:20.672Z,53.66
2022-09-17T09:55:26.672Z,53.60
2022-09-17T09:56:53.832Z,53.94
2022-09-17T09:58:03.448Z,52.92
2022-09-17T09:59:11.187Z,52.14
2022-09-17T10:00:36.881Z,51.84
2022-09-17T10:01:42.622Z,50.95
2022-09-17T10:02:48.347Z,50.96
2022-09-17T10:03:54.183Z,51.27
2022-09-17T10:05:08.678Z,51.35
2022-09-17T10:06:12.138Z,50.77
2022-09-17T10:07:14.641Z,50.39
2022-09-17T10:08:16.818Z,49.98
2022-09-17T10:09:22.200Z,49.87
2022-09-17T10:10:24.392Z,49.86
2022-09-17T10:11:34.838Z,49.76
2022-09-17T10:12:37.067Z,49.33
2022-09-17T10:13:40.320Z,49.40
2022-09-17T10:14:45.125Z,49.20
2022-09-17T10:15:47.401Z,49.56
2022-09-17T10:16:49.657Z,49.81
2022-09-17T10:18:12.639Z,49.75
2022-09-17T10:19:25.872Z,49.68
2022-09-17T10:20:29.638Z,49.31
2022-09-17T10:21:34.197Z,49.15
2022-09-17T10:22:45.059Z,49.60
2022-09-17T10:23:53.705Z,49.49
2022-09-17T10:24:58.123Z,49.60
2022-09-17T10:26:00.397Z,49.91
2022-09-17T10:27:13.495Z,49.66
2022-09-17T10:28:29.663Z,50.07
2022-09-17T10:29:35.597Z,49.56
2022-09-17T10:30:37.849Z,49.90
2022-09-17T10:31:54.727Z,49.86
2022-09-17T10:33:17.744Z,50.46
2022-09-17T10:34:31.178Z,50.08
2022-09-17T10:35:33.967Z,50.05
2022-09-17T10:36:42.134Z,49.31
2022-09-17T10:37:54.251Z,49.66
2022-09-17T10:38:56.375Z,48.82
2022-09-17T10:39:58.702Z,48.86
2022-09-17T10:41:19.295Z,48.50
2022-09-17T10:42:22.229Z,48.90
2022-09-17T10:43:24.425Z,48.80
2022-09-17T10:44:32.626Z,48.71
2022-09-17T10:45:37.640Z,48.98
2022-09-17T10:46:39.918Z,48.79
2022-09-17T10:47:44.993Z,48.48
2022-09-17T10:49:12.161Z,49.13
2022-09-17T10:50:19.940Z,49.06
2022-09-17T10:51:26.603Z,48.61
2022-09-17T10:52:35.140Z,48.74
2022-09-17T10:54:14.525Z,48.81
2022-09-17T10:55:27.057Z,47.94
2022-09-17T10:56:37.781Z,47.88
2022-09-17T10:58:08.072Z,48.34
2022-09-17T10:59:28.739Z,48.33
2022-09-17T11:00:59.189Z,47.75
2022-09-17T11:02:40.552Z,47.84
2022-09-17T11:03:51.901Z,46.20
2022-09-17T11:05:21.738Z,46.72
2022-09-17T11:06:42.588Z,47.08
2022-09-17T11:08:03.361Z,46.79
2022-09-17T11:09:34.135Z,46.90
2022-09-17T11:10:58.288Z,47.56
2022-09-17T11:12:42.239Z,47.35
2022-09-17T11:14:16.517Z,47.48
2022-09-17T11:15:43.517Z,47.13
2022-09-17T11:17:21.944Z,47.13
2022-09-17T11:18:41.805Z,47.30
2022-09-17T11:20:01.886Z,47.33
2022-09-17T11:21:40.387Z,47.64
2022-09-17T11:23:14.800Z,47.48
2022-09-17T11:24:50.790Z,47.40
2022-09-17T11:26:27.073Z,47.04
2022-09-17T11:27:37.729Z,46.30
2022-09-17T11:28:51.778Z,45.89
2022-09-17T11:30:14.372Z,45.87
2022-09-17T11:31:31.850Z,45.83
2022-09-17T11:33:13.301Z,46.16
2022-09-17T11:34:26.718Z,45.46
2022-09-17T11:36:07.048Z,45.65
2022-09-17T11:37:22.371Z,45.84
2022-09-17T11:38:34.934Z,46.10
2022-09-17T11:39:59.120Z,47.00
2022-09-17T11:41:19.463Z,47.62
2022-09-17T11:42:28.196Z,48.41
2022-09-17T11:43:36.269Z,48.75
2022-09-17T11:44:59.189Z,48.93
2022-09-17T11:46:27.681Z,49.59
2022-09-17T11:47:35.330Z,50.13
2022-09-17T11:48:44.660Z,50.25
2022-09-17T11:49:52.660Z,50.71
2022-09-17T11:51:00.920Z,50.89
2022-09-17T11:52:09.474Z,51.29
2022-09-17T11:53:28.816Z,51.26
2022-09-17T11:54:45.212Z,51.81
2022-09-17T11:56:13.433Z,52.08
2022-09-17T11:57:22.673Z,52.66
2022-09-17T11:58:36.391Z,53.02
2022-09-17T11:59:50.141Z,53.32
2022-09-17T12:01:01.177Z,53.68
2022-09-17T12:02:09.417Z,53.97
2022-09-17T12:03:52.557Z,53.85
2022-09-17T12:05:26.321Z,53.83
2022-09-17T12:06:44.964Z,53.62
2022-09-17T12:08:00.094Z,53.84
2022-09-17T12:09:15.430Z,54.11
2022-09-17T12:10:35.586Z,54.31
2022-09-17T12:11:48.423Z,54.58
2022-09-17T12:12:58.125Z,54.55
2022-09-17T12:14:09.837Z,54.28
2022-09-17T12:15:21.807Z,54.67
2022-09-17T12:16:31.574Z,54.34
2022-09-17T12:18:20.647Z,54.09
2022-09-17T12:19:44.817Z,53.70
2022-09-17T12:20:52.458Z,53.71
2022-09-17T12:22:00.173Z,53.73
2022-09-17T12:23:11.075Z,53.71
2022-09-17T12:24:27.657Z,53.74
2022-09-17T12:25:38.257Z,53.84
2022-09-17T12:26:49.324Z,54.18
2022-09-17T12:28:03.894Z,54.21
2022-09-17T12:29:14.633Z,54.49
2022-09-17T12:30:25.861Z,54.70
2022-09-17T12:31:57.249Z,54.89
2022-09-17T12:33:05.540Z,55.48
2022-09-17T12:34:26.355Z,55.18
2022-09-17T12:36:05.017Z,54.82
2022-09-17T12:37:43.326Z,55.23
2022-09-17T12:38:52.736Z,54.76
2022-09-17T12:40:12.210Z,54.77
2022-09-17T12:41:20.617Z,54.93
2022-09-17T12:42:38.486Z,54.62
2022-09-17T12:43:57.770Z,54.49
2022-09-17T12:45:15.620Z,54.82
2022-09-17T12:46:52.033Z,54.69
2022-09-17T12:48:17.284Z,54.28
2022-09-17T12:49:31.277Z,54.17
2022-09-17T12:50:58.157Z,53.89
2022-09-17T12:52:36.420Z,53.99
2022-09-17T12:54:16.170Z,54.09
2022-09-17T12:55:44.379Z,53.59
2022-09-17T12:57:26.754Z,53.08
2022-09-17T12:58:47.559Z,53.01
2022-09-17T12:59:58.869Z,53.11
2022-09-17T13:01:14.638Z,52.95
2022-09-17T13:02:26.526Z,52.97
2022-09-17T13:03:42.799Z,52.38
2022-09-17T13:05:03.843Z,52.06
2022-09-17T13:06:36.801Z,52.22
2022-09-17T13:08:04.966Z,51.79
2022-09-17T13:09:15.877Z,51.34
2022-09-17T13:10:36.837Z,50.75
2022-09-17T13:12:11.106Z,50.90
2022-09-17T13:13:34.809Z,50.82
2022-09-17T13:14:55.071Z,50.13
2022-09-17T13:16:13.368Z,49.93
2022-09-17T13:19:46.948Z,49.27
2022-09-17T13:21:06.839Z,49.08
2022-09-17T13:22:17.479Z,48.68
2022-09-17T13:23:34.286Z,48.37
2022-09-17T13:24:37.759Z,47.69
2022-09-17T13:25:53.296Z,48.04
2022-09-17T13:26:56.583Z,48.11
2022-09-17T13:28:10.595Z,47.98
2022-09-17T13:29:14.654Z,48.22
2022-09-17T13:30:19.080Z,48.21
2022-09-17T13:31:39.624Z,48.64
2022-09-17T13:32:43.194Z,48.53
2022-09-17T13:33:59.642Z,48.88
2022-09-17T13:35:14.690Z,48.91
2022-09-17T13:36:36.792Z,49.15
2022-09-17T13:37:49.006Z,48.87
2022-09-17T13:38:54.237Z,49.05
2022-09-17T13:39:57.216Z,49.25
2022-09-17T13:41:20.994Z,49.54
2022-09-17T13:42:31.334Z,49.76
2022-09-17T13:43:33.553Z,49.84
2022-09-17T13:44:43.291Z,49.48
2022-09-17T13:46:11.221Z,49.61
2022-09-17T13:47:28.068Z,49.87
2022-09-17T13:48:32.717Z,50.17
2022-09-17T13:49:34.995Z,50.21
2022-09-17T13:50:39.894Z,49.91
2022-09-17T13:51:44.144Z,49.82
2022-09-17T13:52:52.355Z,49.37
2022-09-17T13:53:55.638Z,49.49
2022-09-17T13:54:58.576Z,49.42
2022-09-17T13:56:31.967Z,49.37
2022-09-17T13:57:47.484Z,49.98
2022-09-17T13:58:49.679Z,49.62
2022-09-17T13:59:54.541Z,50.03
2022-09-17T14:01:08.049Z,49.33
2022-09-17T14:02:16.260Z,49.05
2022-09-17T14:03:48.675Z,49.00
2022-09-17T14:05:24.205Z,48.93
2022-09-17T14:06:26.321Z,48.63
2022-09-17T14:07:33.725Z,48.42
2022-09-17T14:08:45.459Z,48.16
2022-09-17T14:10:17.003Z,48.26
2022-09-17T14:11:32.517Z,47.68
2022-09-17T14:13:01.118Z,47.30
2022-09-17T14:14:03.257Z,47.58
2022-09-17T14:15:34.559Z,47.63
2022-09-17T14:16:43.388Z,47.61
2022-09-17T14:17:53.454Z,47.51
2022-09-17T14:19:01.711Z,47.72
2022-09-17T14:20:05.505Z,47.66
2022-09-17T14:21:24.235Z,47.86
2022-09-17T14:22:27.060Z,47.95
2022-09-17T14:23:29.340Z,47.70
2022-09-17T14:24:44.857Z,47.81
2022-09-17T14:25:55.120Z,48.06
2022-09-17T14:26:57.828Z,48.05
2022-09-17T14:28:08.315Z,48.04
2022-09-17T14:29:41.143Z,47.99
2022-09-17T14:30:44.305Z,48.01
2022-09-17T14:31:46.572Z,48.21
2022-09-17T14:33:02.883Z,47.82
2022-09-17T14:34:09.900Z,47.74
2022-09-17T14:35:41.711Z,47.66
2022-09-17T14:36:43.891Z,47.42
2022-09-17T14:37:52.663Z,47.21
2022-09-17T14:38:57.380Z,47.13
2022-09-17T14:39:59.764Z,47.26
2022-09-17T14:41:18.873Z,46.99
2022-09-17T14:42:32.329Z,46.80
2022-09-17T14:43:41.220Z,47.01
2022-09-17T14:45:06.453Z,47.14
2022-09-17T14:46:19.050Z,46.99
2022-09-17T14:47:22.665Z,46.72
2022-09-17T14:48:29.055Z,46.85
2022-09-17T14:49:34.455Z,46.54
2022-09-17T14:50:36.787Z,46.65
2022-09-17T14:51:42.149Z,46.28
2022-09-17T14:52:50.074Z,46.60
2022-09-17T14:54:05.730Z,46.24
2022-09-17T14:55:19.348Z,46.21
2022-09-17T14:56:22.590Z,45.78
2022-09-17T14:57:28.271Z,45.83
2022-09-17T14:58:37.901Z,46.03
2022-09-17T14:59:57.674Z,45.93
2022-09-17T15:01:00.275Z,45.71
2022-09-17T15:02:03.490Z,45.28